sensor_id;sensor_type;location;lat;lon;timestamp;pressure;altitude;pressure_sealevel;temperature;humidity
23899;BME280;20544;50.018;20.010;2023-07-13T00:01:19;98464.98;;;22.25;100.00
23899;BME280;20544;50.018;20.010;2023-07-13T00:04:35;98467.39;;;22.16;100.00
23899;BME280;20544;50.018;20.010;2023-07-13T00:07:54;98463.63;;;22.22;100.00
23899;BME280;20544;50.018;20.010;2023-07-13T00:11:10;98467.95;;;22.23;100.00
23899;BME280;20544;50.018;20.010;2023-07-13T00:14:28;98476.83;;;22.13;100.00
23899;BME280;20544;50.018;20.010;2023-07-13T00:17:45;98473.58;;;22.11;100.00
23899;BME280;20544;50.018;20.010;2023-07-13T00:21:04;98462.48;;;22.03;100.00
23899;BME280;20544;50.018;20.010;2023-07-13T00:24:21;98477.59;;;21.98;100.00
23899;BME280;20544;50.018;20.010;2023-07-13T00:28:48;98474.61;;;21.95;100.00
23899;BME280;20544;50.018;20.010;2023-07-13T00:32:08;98477.58;;;21.93;100.00
23899;BME280;20544;50.018;20.010;2023-07-13T00:35:25;98472.16;;;21.88;100.00
23899;BME280;20544;50.018;20.010;2023-07-13T00:38:44;98476.71;;;21.83;100.00
23899;BME280;20544;50.018;20.010;2023-07-13T00:42:01;98481.27;;;21.77;100.00
23899;BME280;20544;50.018;20.010;2023-07-13T00:49:32;98487.13;;;21.58;100.00
23899;BME280;20544;50.018;20.010;2023-07-13T00:52:53;98497.83;;;21.53;100.00
23899;BME280;20544;50.018;20.010;2023-07-13T00:56:12;98506.14;;;21.41;100.00
23899;BME280;20544;50.018;20.010;2023-07-13T00:59:29;98506.55;;;21.23;100.00
23899;BME280;20544;50.018;20.010;2023-07-13T01:02:47;98497.98;;;20.98;100.00
23899;BME280;20544;50.018;20.010;2023-07-13T01:06:06;98508.23;;;20.96;100.00
23899;BME280;20544;50.018;20.010;2023-07-13T01:09:25;98506.75;;;20.83;100.00
23899;BME280;20544;50.018;20.010;2023-07-13T01:13:12;98503.90;;;20.68;100.00
23899;BME280;20544;50.018;20.010;2023-07-13T01:16:32;98506.99;;;20.55;100.00
23899;BME280;20544;50.018;20.010;2023-07-13T01:19:51;98513.97;;;20.50;100.00
23899;BME280;20544;50.018;20.010;2023-07-13T01:23:10;98508.00;;;20.48;100.00
23899;BME280;20544;50.018;20.010;2023-07-13T01:26:28;98507.77;;;20.50;100.00
23899;BME280;20544;50.018;20.010;2023-07-13T01:29:47;98505.31;;;20.48;100.00
23899;BME280;20544;50.018;20.010;2023-07-13T01:33:06;98479.92;;;20.39;100.00
23899;BME280;20544;50.018;20.010;2023-07-13T01:36:23;98463.94;;;20.32;100.00
23899;BME280;20544;50.018;20.010;2023-07-13T01:39:40;98459.53;;;20.48;100.00
23899;BME280;20544;50.018;20.010;2023-07-13T01:44:05;98455.63;;;20.61;100.00
23899;BME280;20544;50.018;20.010;2023-07-13T01:47:21;98459.16;;;20.67;100.00
23899;BME280;20544;50.018;20.010;2023-07-13T01:50:40;98460.31;;;20.44;100.00
23899;BME280;20544;50.018;20.010;2023-07-13T01:53:56;98453.48;;;20.36;100.00
23899;BME280;20544;50.018;20.010;2023-07-13T01:57:12;98454.80;;;20.33;100.00
23899;BME280;20544;50.018;20.010;2023-07-13T02:00:29;98440.98;;;20.25;100.00
23899;BME280;20544;50.018;20.010;2023-07-13T02:03:45;98422.04;;;20.14;100.00
23899;BME280;20544;50.018;20.010;2023-07-13T02:07:02;98403.46;;;20.13;100.00
23899;BME280;20544;50.018;20.010;2023-07-13T02:10:19;98399.19;;;20.17;100.00
23899;BME280;20544;50.018;20.010;2023-07-13T02:13:36;98385.68;;;20.12;100.00
23899;BME280;20544;50.018;20.010;2023-07-13T02:16:52;98377.82;;;20.05;100.00
23899;BME280;20544;50.018;20.010;2023-07-13T02:20:09;98389.95;;;20.08;100.00
23899;BME280;20544;50.018;20.010;2023-07-13T02:23:26;98394.50;;;20.07;100.00
23899;BME280;20544;50.018;20.010;2023-07-13T02:26:43;98391.92;;;19.90;100.00
23899;BME280;20544;50.018;20.010;2023-07-13T02:30:00;98378.96;;;19.87;100.00
23899;BME280;20544;50.018;20.010;2023-07-13T02:33:17;98389.64;;;19.82;100.00
23899;BME280;20544;50.018;20.010;2023-07-13T02:36:34;98395.14;;;19.70;100.00
23899;BME280;20544;50.018;20.010;2023-07-13T02:39:50;98388.91;;;19.64;100.00
23899;BME280;20544;50.018;20.010;2023-07-13T02:44:32;98401.23;;;19.60;100.00
23899;BME280;20544;50.018;20.010;2023-07-13T02:47:48;98390.96;;;19.57;100.00
23899;BME280;20544;50.018;20.010;2023-07-13T02:51:06;98394.16;;;19.54;100.00
23899;BME280;20544;50.018;20.010;2023-07-13T02:54:23;98398.97;;;19.52;100.00
23899;BME280;20544;50.018;20.010;2023-07-13T02:57:40;98398.71;;;19.53;100.00
23899;BME280;20544;50.018;20.010;2023-07-13T03:00:57;98399.91;;;19.40;100.00
23899;BME280;20544;50.018;20.010;2023-07-13T03:04:14;98398.91;;;19.47;100.00
23899;BME280;20544;50.018;20.010;2023-07-13T03:07:32;98397.28;;;19.46;100.00
23899;BME280;20544;50.018;20.010;2023-07-13T03:10:49;98396.16;;;19.42;100.00
23899;BME280;20544;50.018;20.010;2023-07-13T03:14:10;98392.09;;;19.39;100.00
23899;BME280;20544;50.018;20.010;2023-07-13T03:17:29;98402.84;;;19.39;100.00
23899;BME280;20544;50.018;20.010;2023-07-13T03:20:48;98416.16;;;19.51;100.00
23899;BME280;20544;50.018;20.010;2023-07-13T03:24:07;98419.23;;;19.60;100.00
23899;BME280;20544;50.018;20.010;2023-07-13T03:27:24;98419.42;;;19.53;100.00
23899;BME280;20544;50.018;20.010;2023-07-13T03:30:41;98421.86;;;19.54;100.00
23899;BME280;20544;50.018;20.010;2023-07-13T03:33:57;98418.91;;;19.56;100.00
23899;BME280;20544;50.018;20.010;2023-07-13T03:37:15;98436.80;;;19.67;100.00
23899;BME280;20544;50.018;20.010;2023-07-13T03:40:31;98431.80;;;19.76;100.00
23899;BME280;20544;50.018;20.010;2023-07-13T03:43:48;98429.98;;;19.60;100.00
23899;BME280;20544;50.018;20.010;2023-07-13T03:47:08;98431.05;;;19.59;100.00
23899;BME280;20544;50.018;20.010;2023-07-13T03:50:24;98429.05;;;19.71;100.00
23899;BME280;20544;50.018;20.010;2023-07-13T03:53:44;98417.03;;;19.79;100.00
23899;BME280;20544;50.018;20.010;2023-07-13T03:57:02;98399.17;;;19.90;100.00
23899;BME280;20544;50.018;20.010;2023-07-13T04:00:20;98406.55;;;19.99;100.00
23899;BME280;20544;50.018;20.010;2023-07-13T04:03:38;98414.41;;;20.06;100.00
23899;BME280;20544;50.018;20.010;2023-07-13T04:06:55;98418.73;;;20.07;100.00
23899;BME280;20544;50.018;20.010;2023-07-13T04:10:12;98419.63;;;19.91;100.00
23899;BME280;20544;50.018;20.010;2023-07-13T04:14:37;98428.71;;;19.84;100.00
23899;BME280;20544;50.018;20.010;2023-07-13T04:17:53;98435.34;;;19.99;100.00
23899;BME280;20544;50.018;20.010;2023-07-13T04:21:10;98449.16;;;20.08;100.00
23899;BME280;20544;50.018;20.010;2023-07-13T04:24:28;98458.05;;;20.08;100.00
23899;BME280;20544;50.018;20.010;2023-07-13T04:27:44;98452.55;;;19.98;100.00
23899;BME280;20544;50.018;20.010;2023-07-13T04:31:01;98449.09;;;20.02;100.00
23899;BME280;20544;50.018;20.010;2023-07-13T04:34:18;98459.62;;;20.04;100.00
23899;BME280;20544;50.018;20.010;2023-07-13T04:37:34;98454.13;;;20.21;100.00
23899;BME280;20544;50.018;20.010;2023-07-13T04:44:06;98468.53;;;20.59;100.00
23899;BME280;20544;50.018;20.010;2023-07-13T04:47:22;98465.83;;;20.59;100.00
23899;BME280;20544;50.018;20.010;2023-07-13T04:50:39;98464.39;;;20.74;100.00
23899;BME280;20544;50.018;20.010;2023-07-13T04:53:56;98458.84;;;20.91;100.00
23899;BME280;20544;50.018;20.010;2023-07-13T04:57:14;98446.58;;;21.05;100.00
23899;BME280;20544;50.018;20.010;2023-07-13T05:00:31;98446.37;;;21.17;100.00
23899;BME280;20544;50.018;20.010;2023-07-13T05:03:47;98444.29;;;21.29;100.00
23899;BME280;20544;50.018;20.010;2023-07-13T05:07:07;98439.27;;;21.43;100.00
23899;BME280;20544;50.018;20.010;2023-07-13T05:10:24;98427.78;;;21.58;100.00
23899;BME280;20544;50.018;20.010;2023-07-13T05:14:48;98436.73;;;21.74;100.00
23899;BME280;20544;50.018;20.010;2023-07-13T05:18:05;98438.13;;;21.82;100.00
23899;BME280;20544;50.018;20.010;2023-07-13T05:26:15;98443.36;;;22.14;100.00
23899;BME280;20544;50.018;20.010;2023-07-13T05:29:34;98443.10;;;22.26;100.00
23899;BME280;20544;50.018;20.010;2023-07-13T05:33:10;98452.88;;;22.43;100.00
23899;BME280;20544;50.018;20.010;2023-07-13T05:45:23;98446.44;;;22.70;100.00
23899;BME280;20544;50.018;20.010;2023-07-13T05:48:40;98444.80;;;22.79;100.00
23899;BME280;20544;50.018;20.010;2023-07-13T05:51:59;98432.11;;;22.85;100.00
23899;BME280;20544;50.018;20.010;2023-07-13T05:55:16;98443.20;;;22.88;100.00
23899;BME280;20544;50.018;20.010;2023-07-13T06:01:49;98452.38;;;22.92;100.00
23899;BME280;20544;50.018;20.010;2023-07-13T06:05:10;98452.65;;;22.96;100.00
23899;BME280;20544;50.018;20.010;2023-07-13T06:08:26;98459.67;;;23.02;100.00
23899;BME280;20544;50.018;20.010;2023-07-13T06:14:59;98457.78;;;23.13;100.00
23899;BME280;20544;50.018;20.010;2023-07-13T06:18:15;98449.69;;;23.18;100.00
23899;BME280;20544;50.018;20.010;2023-07-13T06:21:31;98443.98;;;23.25;100.00
23899;BME280;20544;50.018;20.010;2023-07-13T06:24:47;98448.02;;;23.33;100.00
23899;BME280;20544;50.018;20.010;2023-07-13T06:31:19;98440.17;;;23.47;100.00
23899;BME280;20544;50.018;20.010;2023-07-13T06:34:35;98435.52;;;23.57;100.00
23899;BME280;20544;50.018;20.010;2023-07-13T06:37:52;98441.98;;;23.67;100.00
23899;BME280;20544;50.018;20.010;2023-07-13T06:44:24;98436.79;;;23.81;100.00
23899;BME280;20544;50.018;20.010;2023-07-13T06:47:42;98447.05;;;23.89;100.00
23899;BME280;20544;50.018;20.010;2023-07-13T06:50:59;98449.47;;;23.90;100.00
23899;BME280;20544;50.018;20.010;2023-07-13T06:54:16;98467.09;;;23.93;100.00
23899;BME280;20544;50.018;20.010;2023-07-13T06:57:35;98454.86;;;24.01;100.00
23899;BME280;20544;50.018;20.010;2023-07-13T07:00:54;98466.49;;;24.06;100.00
23899;BME280;20544;50.018;20.010;2023-07-13T07:04:20;98476.21;;;24.13;100.00
23899;BME280;20544;50.018;20.010;2023-07-13T07:07:38;98473.98;;;24.20;100.00
23899;BME280;20544;50.018;20.010;2023-07-13T07:10:54;98470.98;;;24.27;100.00
23899;BME280;20544;50.018;20.010;2023-07-13T07:15:51;98465.79;;;24.35;100.00
23899;BME280;20544;50.018;20.010;2023-07-13T07:19:09;98455.63;;;24.57;100.00
23899;BME280;20544;50.018;20.010;2023-07-13T07:22:26;98461.82;;;24.67;100.00
23899;BME280;20544;50.018;20.010;2023-07-13T07:25:46;98463.36;;;24.79;100.00
23899;BME280;20544;50.018;20.010;2023-07-13T07:32:19;98461.84;;;24.97;100.00
23899;BME280;20544;50.018;20.010;2023-07-13T07:35:38;98457.14;;;25.08;100.00
23899;BME280;20544;50.018;20.010;2023-07-13T07:38:56;98448.95;;;25.13;100.00
23899;BME280;20544;50.018;20.010;2023-07-13T07:45:32;98451.31;;;25.19;100.00
23899;BME280;20544;50.018;20.010;2023-07-13T07:48:57;98451.55;;;25.23;100.00
23899;BME280;20544;50.018;20.010;2023-07-13T07:52:18;98442.16;;;25.45;100.00
23899;BME280;20544;50.018;20.010;2023-07-13T07:55:35;98447.39;;;25.60;100.00
23899;BME280;20544;50.018;20.010;2023-07-13T07:58:54;98448.98;;;25.86;100.00
23899;BME280;20544;50.018;20.010;2023-07-13T08:02:10;98450.69;;;26.06;100.00
23899;BME280;20544;50.018;20.010;2023-07-13T08:05:30;98467.34;;;26.18;100.00
23899;BME280;20544;50.018;20.010;2023-07-13T08:08:49;98460.02;;;26.19;100.00
23899;BME280;20544;50.018;20.010;2023-07-13T08:15:22;98466.41;;;26.47;100.00
23899;BME280;20544;50.018;20.010;2023-07-13T08:18:39;98467.07;;;26.77;100.00
23899;BME280;20544;50.018;20.010;2023-07-13T08:21:56;98467.88;;;27.10;100.00
23899;BME280;20544;50.018;20.010;2023-07-13T08:25:12;98465.13;;;27.43;100.00
23899;BME280;20544;50.018;20.010;2023-07-13T08:31:48;98480.05;;;27.60;100.00
23899;BME280;20544;50.018;20.010;2023-07-13T08:35:06;98474.02;;;27.16;100.00
23899;BME280;20544;50.018;20.010;2023-07-13T08:38:23;98471.91;;;27.13;100.00
23899;BME280;20544;50.018;20.010;2023-07-13T08:41:43;98463.88;;;27.36;100.00
23899;BME280;20544;50.018;20.010;2023-07-13T08:45:11;98459.64;;;27.29;100.00
23899;BME280;20544;50.018;20.010;2023-07-13T08:48:34;98460.08;;;27.04;100.00
23899;BME280;20544;50.018;20.010;2023-07-13T08:51:55;98455.25;;;27.01;100.00
23899;BME280;20544;50.018;20.010;2023-07-13T08:55:17;98437.95;;;26.77;100.00
23899;BME280;20544;50.018;20.010;2023-07-13T08:58:37;98444.84;;;26.70;100.00
23899;BME280;20544;50.018;20.010;2023-07-13T09:05:44;98431.61;;;26.63;100.00
23899;BME280;20544;50.018;20.010;2023-07-13T09:09:09;98426.78;;;26.60;100.00
23899;BME280;20544;50.018;20.010;2023-07-13T09:15:45;98422.53;;;26.54;100.00
23899;BME280;20544;50.018;20.010;2023-07-13T09:19:05;98422.48;;;26.40;100.00
23899;BME280;20544;50.018;20.010;2023-07-13T09:22:27;98425.28;;;26.35;100.00
23899;BME280;20544;50.018;20.010;2023-07-13T09:25:48;98422.64;;;26.29;100.00
23899;BME280;20544;50.018;20.010;2023-07-13T09:29:14;98418.43;;;26.18;100.00
23899;BME280;20544;50.018;20.010;2023-07-13T09:32:33;98411.26;;;26.08;100.00
23899;BME280;20544;50.018;20.010;2023-07-13T09:35:50;98412.09;;;25.84;100.00
23899;BME280;20544;50.018;20.010;2023-07-13T09:39:12;98418.39;;;25.80;100.00
23899;BME280;20544;50.018;20.010;2023-07-13T09:42:30;98417.47;;;25.65;100.00
23899;BME280;20544;50.018;20.010;2023-07-13T09:45:48;98410.38;;;25.45;100.00
23899;BME280;20544;50.018;20.010;2023-07-13T09:49:05;98413.25;;;25.30;100.00
23899;BME280;20544;50.018;20.010;2023-07-13T09:52:23;98413.09;;;25.16;100.00
23899;BME280;20544;50.018;20.010;2023-07-13T09:55:42;98415.13;;;25.05;100.00
23899;BME280;20544;50.018;20.010;2023-07-13T09:59:01;98414.45;;;24.89;100.00
23899;BME280;20544;50.018;20.010;2023-07-13T10:02:28;98412.98;;;24.73;100.00
23899;BME280;20544;50.018;20.010;2023-07-13T10:05:48;98414.13;;;24.61;100.00
23899;BME280;20544;50.018;20.010;2023-07-13T10:09:09;98408.27;;;24.49;100.00
23899;BME280;20544;50.018;20.010;2023-07-13T10:18:42;98411.72;;;24.15;100.00
23899;BME280;20544;50.018;20.010;2023-07-13T10:22:10;98416.13;;;24.05;100.00
23899;BME280;20544;50.018;20.010;2023-07-13T10:25:30;98421.60;;;23.95;100.00
23899;BME280;20544;50.018;20.010;2023-07-13T10:28:49;98427.04;;;23.80;100.00
23899;BME280;20544;50.018;20.010;2023-07-13T10:32:10;98426.83;;;23.66;100.00
23899;BME280;20544;50.018;20.010;2023-07-13T10:35:30;98434.73;;;23.52;100.00
23899;BME280;20544;50.018;20.010;2023-07-13T10:38:50;98440.73;;;23.33;100.00
23899;BME280;20544;50.018;20.010;2023-07-13T10:48:25;98478.86;;;22.59;100.00
23899;BME280;20544;50.018;20.010;2023-07-13T10:51:46;98487.78;;;21.81;100.00
23899;BME280;20544;50.018;20.010;2023-07-13T10:55:10;98472.05;;;21.25;100.00
23899;BME280;20544;50.018;20.010;2023-07-13T10:58:39;98478.28;;;20.93;100.00
23899;BME280;20544;50.018;20.010;2023-07-13T11:02:06;98482.23;;;20.80;100.00
23899;BME280;20544;50.018;20.010;2023-07-13T11:05:29;98482.97;;;20.48;100.00
23899;BME280;20544;50.018;20.010;2023-07-13T11:08:56;98496.88;;;20.40;100.00
23899;BME280;20544;50.018;20.010;2023-07-13T11:17:53;98493.77;;;20.26;100.00
23899;BME280;20544;50.018;20.010;2023-07-13T11:21:18;98505.88;;;20.50;100.00
23899;BME280;20544;50.018;20.010;2023-07-13T11:24:59;98524.83;;;20.61;100.00
23899;BME280;20544;50.018;20.010;2023-07-13T11:31:35;98555.43;;;20.27;100.00
23899;BME280;20544;50.018;20.010;2023-07-13T11:34:53;98573.52;;;20.10;100.00
23899;BME280;20544;50.018;20.010;2023-07-13T11:38:16;98578.39;;;19.91;100.00
23899;BME280;20544;50.018;20.010;2023-07-13T11:41:37;98584.96;;;20.00;100.00
23899;BME280;20544;50.018;20.010;2023-07-13T11:49:40;98633.70;;;20.20;100.00
23899;BME280;20544;50.018;20.010;2023-07-13T11:53:00;98640.08;;;20.14;100.00
23899;BME280;20544;50.018;20.010;2023-07-13T11:56:18;98653.56;;;19.97;100.00
23899;BME280;20544;50.018;20.010;2023-07-13T12:02:53;98660.47;;;19.76;100.00
23899;BME280;20544;50.018;20.010;2023-07-13T12:06:23;98656.97;;;19.59;100.00
23899;BME280;20544;50.018;20.010;2023-07-13T12:09:45;98664.54;;;19.45;100.00
23899;BME280;20544;50.018;20.010;2023-07-13T12:16:25;98661.59;;;19.00;100.00
23899;BME280;20544;50.018;20.010;2023-07-13T12:19:47;98662.57;;;18.82;100.00
23899;BME280;20544;50.018;20.010;2023-07-13T12:23:14;98659.59;;;18.67;100.00
23899;BME280;20544;50.018;20.010;2023-07-13T12:26:41;98673.22;;;18.77;100.00
23899;BME280;20544;50.018;20.010;2023-07-13T12:33:21;98678.34;;;18.79;100.00
23899;BME280;20544;50.018;20.010;2023-07-13T12:36:58;98680.23;;;18.78;100.00
23899;BME280;20544;50.018;20.010;2023-07-13T12:40:33;98678.94;;;18.81;100.00
23899;BME280;20544;50.018;20.010;2023-07-13T12:47:14;98668.25;;;18.57;100.00
23899;BME280;20544;50.018;20.010;2023-07-13T12:50:36;98654.09;;;18.62;100.00
23899;BME280;20544;50.018;20.010;2023-07-13T12:54:05;98650.50;;;18.56;100.00
23899;BME280;20544;50.018;20.010;2023-07-13T12:57:46;98645.13;;;18.56;100.00
23899;BME280;20544;50.018;20.010;2023-07-13T13:12:08;98635.93;;;18.52;100.00
23899;BME280;20544;50.018;20.010;2023-07-13T13:16:00;98646.88;;;18.50;100.00
23899;BME280;20544;50.018;20.010;2023-07-13T13:36:34;98654.09;;;18.62;100.00
23899;BME280;20544;50.018;20.010;2023-07-13T13:45:19;98661.17;;;18.80;100.00
23899;BME280;20544;50.018;20.010;2023-07-13T14:05:02;98668.50;;;18.96;100.00
23899;BME280;20544;50.018;20.010;2023-07-13T14:16:15;98673.52;;;19.50;100.00
23899;BME280;20544;50.018;20.010;2023-07-13T14:20:20;98666.43;;;19.78;100.00
23899;BME280;20544;50.018;20.010;2023-07-13T14:23:46;98662.61;;;19.91;100.00
23899;BME280;20544;50.018;20.010;2023-07-13T14:27:09;98659.70;;;19.93;100.00
23899;BME280;20544;50.018;20.010;2023-07-13T14:30:44;98664.65;;;20.01;100.00
23899;BME280;20544;50.018;20.010;2023-07-13T14:34:13;98657.80;;;20.10;100.00
23899;BME280;20544;50.018;20.010;2023-07-13T14:37:35;98654.12;;;20.16;100.00
23899;BME280;20544;50.018;20.010;2023-07-13T14:41:00;98658.41;;;20.17;100.00
23899;BME280;20544;50.018;20.010;2023-07-13T14:44:24;98658.73;;;20.21;100.00
23899;BME280;20544;50.018;20.010;2023-07-13T14:47:46;98674.56;;;20.17;100.00
23899;BME280;20544;50.018;20.010;2023-07-13T14:51:04;98681.91;;;20.22;100.00
23899;BME280;20544;50.018;20.010;2023-07-13T14:54:38;98665.28;;;20.25;100.00
23899;BME280;20544;50.018;20.010;2023-07-13T14:58:08;98663.45;;;20.31;100.00
23899;BME280;20544;50.018;20.010;2023-07-13T15:01:25;98670.54;;;20.37;100.00
23899;BME280;20544;50.018;20.010;2023-07-13T15:04:43;98680.31;;;20.43;100.00
23899;BME280;20544;50.018;20.010;2023-07-13T15:08:02;98707.09;;;20.50;100.00
23899;BME280;20544;50.018;20.010;2023-07-13T15:11:26;98715.23;;;20.55;100.00
23899;BME280;20544;50.018;20.010;2023-07-13T15:14:43;98724.12;;;20.56;100.00
23899;BME280;20544;50.018;20.010;2023-07-13T15:18:01;98716.55;;;20.52;100.00
23899;BME280;20544;50.018;20.010;2023-07-13T15:21:22;98705.84;;;20.58;100.00
23899;BME280;20544;50.018;20.010;2023-07-13T15:24:42;98699.70;;;20.62;100.00
23899;BME280;20544;50.018;20.010;2023-07-13T15:27:59;98700.00;;;20.66;100.00
23899;BME280;20544;50.018;20.010;2023-07-13T15:31:32;98691.17;;;20.71;100.00
23899;BME280;20544;50.018;20.010;2023-07-13T15:34:50;98701.23;;;20.75;100.00
23899;BME280;20544;50.018;20.010;2023-07-13T15:38:15;98693.29;;;20.68;100.00
23899;BME280;20544;50.018;20.010;2023-07-13T15:41:35;98702.88;;;20.76;100.00
23899;BME280;20544;50.018;20.010;2023-07-13T15:44:58;98709.64;;;20.79;100.00
23899;BME280;20544;50.018;20.010;2023-07-13T15:48:20;98696.66;;;20.76;100.00
23899;BME280;20544;50.018;20.010;2023-07-13T15:51:38;98707.69;;;20.74;100.00
23899;BME280;20544;50.018;20.010;2023-07-13T15:54:54;98708.00;;;20.78;100.00
23899;BME280;20544;50.018;20.010;2023-07-13T15:58:13;98706.16;;;20.61;100.00
23899;BME280;20544;50.018;20.010;2023-07-13T16:01:28;98711.55;;;20.61;100.00
23899;BME280;20544;50.018;20.010;2023-07-13T16:04:44;98717.48;;;20.63;100.00
23899;BME280;20544;50.018;20.010;2023-07-13T16:08:02;98719.56;;;20.56;100.00
23899;BME280;20544;50.018;20.010;2023-07-13T16:11:22;98731.94;;;20.57;100.00
23899;BME280;20544;50.018;20.010;2023-07-13T16:14:42;98746.72;;;20.55;100.00
23899;BME280;20544;50.018;20.010;2023-07-13T16:17:58;98762.16;;;20.59;100.00
23899;BME280;20544;50.018;20.010;2023-07-13T16:21:16;98749.00;;;20.63;100.00
23899;BME280;20544;50.018;20.010;2023-07-13T16:24:32;98751.89;;;20.56;100.00
23899;BME280;20544;50.018;20.010;2023-07-13T16:27:50;98758.48;;;20.48;100.00
23899;BME280;20544;50.018;20.010;2023-07-13T16:31:09;98760.56;;;20.41;100.00
23899;BME280;20544;50.018;20.010;2023-07-13T16:34:26;98761.62;;;20.40;100.00
23899;BME280;20544;50.018;20.010;2023-07-13T16:37:44;98769.13;;;20.38;100.00
23899;BME280;20544;50.018;20.010;2023-07-13T16:41:02;98762.75;;;20.27;100.00
23899;BME280;20544;50.018;20.010;2023-07-13T16:44:21;98770.68;;;20.17;100.00
23899;BME280;20544;50.018;20.010;2023-07-13T16:47:34;98768.97;;;20.11;100.00
23899;BME280;20544;50.018;20.010;2023-07-13T16:50:55;98760.73;;;20.00;100.00
23899;BME280;20544;50.018;20.010;2023-07-13T16:54:14;98776.22;;;19.93;100.00
23899;BME280;20544;50.018;20.010;2023-07-13T16:57:33;98775.80;;;19.84;100.00
23899;BME280;20544;50.018;20.010;2023-07-13T17:00:55;98774.05;;;19.78;100.00
23899;BME280;20544;50.018;20.010;2023-07-13T17:04:15;98778.97;;;19.81;100.00
23899;BME280;20544;50.018;20.010;2023-07-13T17:07:32;98780.31;;;19.67;100.00
23899;BME280;20544;50.018;20.010;2023-07-13T17:10:50;98773.00;;;19.79;100.00
23899;BME280;20544;50.018;20.010;2023-07-13T17:14:08;98779.63;;;19.88;100.00
23899;BME280;20544;50.018;20.010;2023-07-13T17:17:31;98775.89;;;19.90;100.00
23899;BME280;20544;50.018;20.010;2023-07-13T17:20:50;98769.70;;;19.89;100.00
23899;BME280;20544;50.018;20.010;2023-07-13T17:24:16;98764.40;;;19.94;100.00
23899;BME280;20544;50.018;20.010;2023-07-13T17:27:35;98752.25;;;19.92;100.00
23899;BME280;20544;50.018;20.010;2023-07-13T17:30:54;98749.23;;;19.88;100.00
23899;BME280;20544;50.018;20.010;2023-07-13T17:34:15;98752.17;;;19.86;100.00
23899;BME280;20544;50.018;20.010;2023-07-13T17:37:32;98753.91;;;19.81;100.00
23899;BME280;20544;50.018;20.010;2023-07-13T17:40:48;98746.01;;;19.74;100.00
23899;BME280;20544;50.018;20.010;2023-07-13T17:44:05;98741.81;;;19.66;100.00
23899;BME280;20544;50.018;20.010;2023-07-13T17:47:26;98755.18;;;19.61;100.00
23899;BME280;20544;50.018;20.010;2023-07-13T17:50:43;98755.38;;;19.71;100.00
23899;BME280;20544;50.018;20.010;2023-07-13T17:54:00;98757.44;;;19.81;100.00
23899;BME280;20544;50.018;20.010;2023-07-13T17:57:18;98754.03;;;19.86;100.00
23899;BME280;20544;50.018;20.010;2023-07-13T18:00:37;98753.78;;;19.87;100.00
23899;BME280;20544;50.018;20.010;2023-07-13T18:03:58;98758.71;;;19.79;100.00
23899;BME280;20544;50.018;20.010;2023-07-13T18:07:15;98757.95;;;19.66;100.00
23899;BME280;20544;50.018;20.010;2023-07-13T18:10:34;98752.11;;;19.69;100.00
23899;BME280;20544;50.018;20.010;2023-07-13T18:13:52;98766.28;;;19.65;100.00
23899;BME280;20544;50.018;20.010;2023-07-13T18:17:13;98763.41;;;19.54;100.00
23899;BME280;20544;50.018;20.010;2023-07-13T18:20:31;98753.45;;;19.55;100.00
23899;BME280;20544;50.018;20.010;2023-07-13T18:23:50;98747.86;;;19.56;100.00
23899;BME280;20544;50.018;20.010;2023-07-13T18:27:07;98745.72;;;19.59;100.00
23899;BME280;20544;50.018;20.010;2023-07-13T18:30:27;98754.38;;;19.61;100.00
23899;BME280;20544;50.018;20.010;2023-07-13T18:33:45;98768.54;;;19.56;100.00
23899;BME280;20544;50.018;20.010;2023-07-13T18:37:03;98771.77;;;19.41;100.00
23899;BME280;20544;50.018;20.010;2023-07-13T18:40:22;98786.41;;;19.33;100.00
23899;BME280;20544;50.018;20.010;2023-07-13T18:43:40;98785.36;;;19.34;100.00
23899;BME280;20544;50.018;20.010;2023-07-13T18:46:57;98792.59;;;19.34;100.00
23899;BME280;20544;50.018;20.010;2023-07-13T18:50:21;98790.56;;;19.12;100.00
23899;BME280;20544;50.018;20.010;2023-07-13T18:53:41;98794.30;;;19.11;100.00
23899;BME280;20544;50.018;20.010;2023-07-13T18:56:58;98803.20;;;19.12;100.00
23899;BME280;20544;50.018;20.010;2023-07-13T19:00:16;98804.00;;;19.12;100.00
23899;BME280;20544;50.018;20.010;2023-07-13T19:03:35;98819.19;;;19.06;100.00
23899;BME280;20544;50.018;20.010;2023-07-13T19:06:52;98828.89;;;18.84;100.00
23899;BME280;20544;50.018;20.010;2023-07-13T19:10:14;98824.34;;;18.72;100.00
23899;BME280;20544;50.018;20.010;2023-07-13T19:13:32;98826.79;;;18.74;100.00
23899;BME280;20544;50.018;20.010;2023-07-13T19:16:50;98834.64;;;18.75;100.00
23899;BME280;20544;50.018;20.010;2023-07-13T19:20:13;98835.20;;;18.78;100.00
23899;BME280;20544;50.018;20.010;2023-07-13T19:23:34;98836.62;;;18.68;100.00
23899;BME280;20544;50.018;20.010;2023-07-13T19:26:55;98849.46;;;18.54;100.00
23899;BME280;20544;50.018;20.010;2023-07-13T19:30:13;98852.14;;;18.54;100.00
23899;BME280;20544;50.018;20.010;2023-07-13T19:33:31;98860.41;;;18.53;100.00
23899;BME280;20544;50.018;20.010;2023-07-13T19:36:56;98857.40;;;18.49;100.00
23899;BME280;20544;50.018;20.010;2023-07-13T19:40:24;98854.36;;;18.46;100.00
23899;BME280;20544;50.018;20.010;2023-07-13T19:43:42;98843.27;;;18.42;100.00
23899;BME280;20544;50.018;20.010;2023-07-13T19:46:59;98850.12;;;18.38;100.00
23899;BME280;20544;50.018;20.010;2023-07-13T19:50:18;98850.00;;;18.33;100.00